createdAt,value
2019-05-21T00:00:56.193Z,98986.98
2019-05-21T00:03:22.369Z,98986.19
2019-05-21T00:05:48.521Z,98982.55
2019-05-21T00:08:14.731Z,98972.13
2019-05-21T00:10:40.876Z,98971.89
2019-05-21T00:13:07.041Z,98982.14
2019-05-21T00:15:33.249Z,98983.88
2019-05-21T00:17:59.404Z,98993.34
2019-05-21T00:20:25.680Z,98990.05
2019-05-21T00:22:51.932Z,98992.03
2019-05-21T00:25:18.080Z,98996.52
2019-05-21T00:27:44.258Z,98995.13
2019-05-21T00:30:47.541Z,99003.72
2019-05-21T00:33:50.895Z,98994.48
2019-05-21T00:36:56.008Z,98995.53
2019-05-21T00:40:00.273Z,99001.97
2019-05-21T00:42:32.825Z,99007.37
2019-05-21T00:44:59.277Z,99007.29
2019-05-21T00:47:25.451Z,99010.23
2019-05-21T00:49:51.644Z,98994.11
2019-05-21T00:52:17.827Z,99001.98
2019-05-21T00:54:44.000Z,98994.06
2019-05-21T00:57:10.210Z,98995.28
2019-05-21T00:59:36.364Z,98981.63
2019-05-21T01:02:02.540Z,98983.81
2019-05-21T01:04:28.754Z,98984.45
2019-05-21T01:06:54.908Z,98988.45
2019-05-21T01:09:21.082Z,98992.31
2019-05-21T01:11:47.511Z,98989.11
2019-05-21T01:14:13.669Z,98993.11
2019-05-21T01:16:39.855Z,98991.27
2019-05-21T01:19:06.069Z,98992.66
2019-05-21T01:21:32.223Z,98998.14
2019-05-21T01:23:58.380Z,99001.07
2019-05-21T01:26:24.594Z,98999.30
2019-05-21T01:28:50.779Z,99005.96
2019-05-21T01:31:16.960Z,99001.63
2019-05-21T01:33:43.166Z,99004.64
2019-05-21T01:36:09.327Z,99008.11
2019-05-21T01:38:35.499Z,99008.73
2019-05-21T01:41:01.693Z,99016.70
2019-05-21T01:43:28.788Z,99025.70
2019-05-21T01:45:54.964Z,99021.10
2019-05-21T01:48:21.170Z,99021.09
2019-05-21T01:50:47.346Z,99021.68
2019-05-21T01:53:13.523Z,99020.28
2019-05-21T01:55:39.703Z,99016.48
2019-05-21T01:58:05.869Z,99019.42
2019-05-21T02:00:32.155Z,99011.94
2019-05-21T02:02:58.359Z,99009.20
2019-05-21T02:05:32.543Z,99013.51
2019-05-21T02:07:52.637Z,99010.25
2019-05-21T02:10:18.881Z,99004.44
2019-05-21T02:12:45.025Z,99014.29
2019-05-21T02:15:11.610Z,99016.44
2019-05-21T02:17:37.822Z,99020.30
2019-05-21T02:20:04.472Z,99016.52
2019-05-21T02:22:30.622Z,99013.67
2019-05-21T02:24:56.826Z,99017.05
2019-05-21T02:27:23.044Z,99019.80
2019-05-21T02:29:49.260Z,99018.30
2019-05-21T02:32:15.464Z,99017.80
2019-05-21T02:34:41.618Z,99018.22
2019-05-21T02:37:07.781Z,99013.66
2019-05-21T02:39:33.998Z,99016.75
2019-05-21T02:42:00.180Z,99020.56
2019-05-21T02:44:26.513Z,99028.14
2019-05-21T02:46:52.731Z,99027.23
2019-05-21T02:49:18.887Z,99028.61
2019-05-21T02:51:45.042Z,99038.26
2019-05-21T02:54:11.252Z,99033.73
2019-05-21T02:56:37.406Z,99035.15
2019-05-21T02:59:03.638Z,99036.22
2019-05-21T03:01:34.585Z,99046.68
2019-05-21T03:04:00.822Z,99045.58
2019-05-21T03:06:26.996Z,99043.40
2019-05-21T03:08:53.200Z,99047.23
2019-05-21T03:11:19.350Z,99038.64
2019-05-21T03:13:45.527Z,99039.68
2019-05-21T03:16:11.763Z,99038.47
2019-05-21T03:18:38.002Z,99032.81
2019-05-21T03:21:04.157Z,99022.58
2019-05-21T03:23:30.480Z,99028.87
2019-05-21T03:25:56.631Z,99029.49
2019-05-21T03:28:22.807Z,99035.94
2019-05-21T03:30:49.012Z,99040.28
2019-05-21T03:33:15.569Z,99044.16
2019-05-21T03:35:41.726Z,99047.27
2019-05-21T03:38:07.931Z,99052.95
2019-05-21T03:40:34.941Z,99061.92
2019-05-21T03:43:01.111Z,99057.38
2019-05-21T03:45:28.208Z,99060.01
2019-05-21T03:47:54.389Z,99059.05
2019-05-21T03:50:20.569Z,99059.50
2019-05-21T03:52:46.750Z,99049.97
2019-05-21T03:55:12.897Z,99051.22
2019-05-21T03:57:39.171Z,99044.21
2019-05-21T04:00:07.775Z,99042.73
2019-05-21T04:02:33.945Z,99037.11
2019-05-21T04:05:00.118Z,99037.51
2019-05-21T04:07:26.303Z,99034.46
2019-05-21T04:09:52.452Z,99041.92
2019-05-21T04:12:18.633Z,99054.15
2019-05-21T04:14:46.734Z,99054.09
2019-05-21T04:17:34.568Z,99055.82
2019-05-21T04:19:59.472Z,99060.77
2019-05-21T04:22:25.636Z,99054.43
2019-05-21T04:24:51.845Z,99048.28
2019-05-21T04:27:18.009Z,99039.73
2019-05-21T04:29:44.164Z,99043.63
2019-05-21T04:32:10.334Z,99055.09
2019-05-21T04:34:36.649Z,99068.72
2019-05-21T04:37:10.492Z,99074.56
2019-05-21T04:39:30.887Z,99070.55
2019-05-21T04:41:57.293Z,99068.02
2019-05-21T04:44:23.554Z,99073.58
2019-05-21T04:46:49.885Z,99076.20
2019-05-21T04:49:16.503Z,99076.08
2019-05-21T04:51:42.661Z,99081.88
2019-05-21T04:54:08.834Z,99074.33
2019-05-21T04:56:35.039Z,99075.11
2019-05-21T04:59:01.223Z,99081.05
2019-05-21T05:01:27.393Z,99079.73
2019-05-21T05:03:53.584Z,99076.38
2019-05-21T05:06:19.842Z,99064.06
2019-05-21T05:08:46.005Z,99065.55
2019-05-21T05:11:12.213Z,99056.55
2019-05-21T05:13:38.497Z,99056.20
2019-05-21T05:16:04.759Z,99056.34
2019-05-21T05:18:30.959Z,99062.55
2019-05-21T05:20:57.142Z,99067.33
2019-05-21T05:23:23.305Z,99068.83
2019-05-21T05:25:49.555Z,99072.79
2019-05-21T05:28:15.831Z,99085.89
2019-05-21T05:30:41.988Z,99087.36
2019-05-21T05:33:08.312Z,99089.81
2019-05-21T05:35:34.465Z,99099.60
2019-05-21T05:38:00.623Z,99110.94
2019-05-21T05:40:26.849Z,99117.25
2019-05-21T05:42:53.018Z,99112.11
2019-05-21T05:45:19.396Z,99109.62
2019-05-21T05:47:45.701Z,99112.09
2019-05-21T05:50:30.787Z,99119.17
2019-05-21T05:52:57.003Z,99112.47
2019-05-21T05:55:23.167Z,99117.30
2019-05-21T05:57:49.339Z,99119.99
2019-05-21T06:00:16.558Z,99110.41
2019-05-21T06:02:42.737Z,99115.78
2019-05-21T06:05:09.418Z,99123.36
2019-05-21T06:07:35.746Z,99118.75
2019-05-21T06:10:03.542Z,99112.94
2019-05-21T06:12:29.943Z,99109.13
2019-05-21T06:14:56.135Z,99108.30
2019-05-21T06:17:22.299Z,99114.08
2019-05-21T06:19:48.478Z,99109.97
2019-05-21T06:22:14.688Z,99119.55
2019-05-21T06:24:40.974Z,99123.31
2019-05-21T06:27:07.162Z,99125.44
2019-05-21T06:29:33.361Z,99121.41
2019-05-21T06:31:59.524Z,99121.25
2019-05-21T06:34:25.712Z,99136.14
2019-05-21T06:36:51.926Z,99140.55
2019-05-21T06:39:18.099Z,99148.24
2019-05-21T06:41:44.279Z,99149.05
2019-05-21T06:44:10.590Z,99136.95
2019-05-21T06:46:36.755Z,99130.53
2019-05-21T06:49:02.957Z,99135.91
2019-05-21T06:51:29.144Z,99140.28
2019-05-21T06:53:55.315Z,99128.78
2019-05-21T06:56:21.500Z,99135.78
2019-05-21T06:58:47.699Z,99128.12
2019-05-21T07:01:13.907Z,99120.67
2019-05-21T07:03:40.166Z,99121.53
2019-05-21T07:06:07.293Z,99119.03
2019-05-21T07:08:35.226Z,99114.83
2019-05-21T07:11:01.617Z,99114.61
2019-05-21T07:13:31.048Z,99118.66
2019-05-21T07:15:56.222Z,99118.67
2019-05-21T07:18:22.429Z,99115.05
2019-05-21T07:20:48.622Z,99115.12
2019-05-21T07:23:14.803Z,99113.80
2019-05-21T07:25:40.969Z,99098.88
2019-05-21T07:28:07.169Z,99109.39
2019-05-21T07:30:33.326Z,99112.81
2019-05-21T07:32:59.541Z,99105.35
2019-05-21T07:35:25.752Z,99109.92
2019-05-21T07:37:52.158Z,99113.64
2019-05-21T07:40:18.573Z,99119.24
2019-05-21T07:42:44.763Z,99113.89
2019-05-21T07:45:11.327Z,99110.19
2019-05-21T07:47:37.515Z,99123.32
2019-05-21T07:50:04.983Z,99118.68
2019-05-21T07:52:31.138Z,99116.14
2019-05-21T07:54:57.321Z,99115.43
2019-05-21T07:57:23.541Z,99112.98
2019-05-21T07:59:49.805Z,99105.89
2019-05-21T08:02:15.997Z,99112.61
2019-05-21T08:04:42.198Z,99113.45
2019-05-21T08:07:08.452Z,99111.54
2019-05-21T08:09:34.636Z,99111.09
2019-05-21T08:12:00.823Z,99122.38
2019-05-21T08:14:26.973Z,99113.14
2019-05-21T08:16:53.151Z,99119.52
2019-05-21T08:19:19.332Z,99125.91
2019-05-21T08:21:45.620Z,99128.97
2019-05-21T08:24:11.789Z,99123.42
2019-05-21T08:26:37.974Z,99116.75
2019-05-21T08:29:04.129Z,99115.53
2019-05-21T08:31:30.406Z,99119.88
2019-05-21T08:33:56.722Z,99116.37
2019-05-21T08:36:22.886Z,99122.05
2019-05-21T08:38:49.066Z,99115.11
2019-05-21T08:41:15.343Z,99116.58
2019-05-21T08:43:41.501Z,99106.18
2019-05-21T08:46:07.689Z,99110.07
2019-05-21T08:48:33.996Z,99119.17
2019-05-21T08:51:02.840Z,99113.67
2019-05-21T08:53:29.006Z,99103.78
2019-05-21T08:55:55.323Z,99098.66
2019-05-21T08:58:21.478Z,99106.53
2019-05-21T09:00:47.778Z,99104.66
2019-05-21T09:03:14.102Z,99106.27
2019-05-21T09:05:40.255Z,99108.53
2019-05-21T09:08:06.556Z,99103.74
2019-05-21T09:10:32.794Z,99095.05
2019-05-21T09:12:58.968Z,99094.09
2019-05-21T09:15:25.126Z,99091.08
2019-05-21T09:17:51.356Z,99097.81
2019-05-21T09:20:17.915Z,99094.43
2019-05-21T09:22:44.067Z,99089.70
2019-05-21T09:25:10.790Z,99111.22
2019-05-21T09:27:37.158Z,99108.77
2019-05-21T09:30:05.629Z,99094.95
2019-05-21T09:32:31.852Z,99101.20
2019-05-21T09:34:58.021Z,99096.93
2019-05-21T09:37:24.200Z,99089.47
2019-05-21T09:39:50.401Z,99090.44
2019-05-21T09:42:16.555Z,99095.66
2019-05-21T09:44:42.748Z,99096.55
2019-05-21T09:47:08.952Z,99089.30
2019-05-21T09:49:35.113Z,99101.36
2019-05-21T09:52:01.283Z,99095.38
2019-05-21T09:54:27.488Z,99091.70
2019-05-21T09:56:53.756Z,99091.75
2019-05-21T09:59:24.607Z,99089.58
2019-05-21T10:02:10.553Z,99081.85
2019-05-21T10:04:36.813Z,99081.00
2019-05-21T10:07:03.377Z,99075.17
2019-05-21T10:09:29.592Z,99073.35
2019-05-21T10:11:55.763Z,99068.72
2019-05-21T10:14:22.041Z,99078.61
2019-05-21T10:16:48.250Z,99070.80
2019-05-21T10:19:14.527Z,99067.05
2019-05-21T10:21:40.781Z,99076.39
2019-05-21T10:24:06.999Z,99078.84
2019-05-21T10:26:33.693Z,99080.04
2019-05-21T10:28:59.852Z,99072.59
2019-05-21T10:31:26.153Z,99078.36
2019-05-21T10:33:52.336Z,99083.39
2019-05-21T10:36:18.598Z,99078.27
2019-05-21T10:38:44.804Z,99083.61
2019-05-21T10:41:10.986Z,99072.30
2019-05-21T10:43:37.149Z,99067.96
2019-05-21T10:46:04.230Z,99068.64
2019-05-21T10:48:30.467Z,99081.09
2019-05-21T10:50:56.629Z,99076.39
2019-05-21T10:53:26.517Z,99069.50
2019-05-21T10:55:52.685Z,99063.22
2019-05-21T10:58:18.898Z,99062.11
2019-05-21T11:00:47.182Z,99067.59
2019-05-21T11:03:31.720Z,99060.27
2019-05-21T11:06:09.652Z,99061.47
2019-05-21T11:08:26.117Z,99056.70
2019-05-21T11:10:52.287Z,99062.55
2019-05-21T11:13:18.774Z,99061.81
2019-05-21T11:15:46.264Z,99055.15
2019-05-21T11:18:12.461Z,99048.75
2019-05-21T11:20:39.632Z,99049.38
2019-05-21T11:23:05.813Z,99046.29
2019-05-21T11:25:32.305Z,99042.96
2019-05-21T11:27:58.505Z,99037.66
2019-05-21T11:30:24.770Z,99026.66
2019-05-21T11:32:50.960Z,99038.92
2019-05-21T11:35:17.245Z,99030.88
2019-05-21T11:37:47.647Z,99034.08
2019-05-21T11:40:13.259Z,99031.52
2019-05-21T11:42:39.636Z,99029.30
2019-05-21T11:45:06.494Z,99037.39
2019-05-21T11:47:32.675Z,99037.73
2019-05-21T11:49:58.901Z,99031.55
2019-05-21T11:52:25.058Z,99025.66
2019-05-21T11:54:51.256Z,99027.44
2019-05-21T11:57:17.548Z,99026.36
2019-05-21T11:59:43.701Z,99034.14
2019-05-21T12:02:10.385Z,99029.27
2019-05-21T12:04:36.574Z,99032.02
2019-05-21T12:07:03.712Z,99032.58
2019-05-21T12:09:30.164Z,99031.58
2019-05-21T12:11:56.367Z,99027.05
2019-05-21T12:14:22.552Z,99015.41
2019-05-21T12:16:48.716Z,99040.23
2019-05-21T12:19:15.021Z,99068.75
2019-05-21T12:21:42.392Z,99093.32
2019-05-21T12:24:08.769Z,99067.79
2019-05-21T12:26:34.960Z,99019.61
2019-05-21T12:29:01.116Z,99039.56
2019-05-21T12:31:27.295Z,99050.95
2019-05-21T12:33:53.595Z,99051.11
2019-05-21T12:36:19.900Z,99024.58
2019-05-21T12:38:46.192Z,99013.11
2019-05-21T12:41:13.672Z,99015.11
2019-05-21T12:43:40.259Z,99012.44
2019-05-21T12:46:06.531Z,99000.53
2019-05-21T12:48:32.843Z,99001.07
2019-05-21T12:50:59.009Z,98990.73
2019-05-21T12:53:25.184Z,98985.06
2019-05-21T12:55:52.384Z,98973.25
2019-05-21T12:58:18.556Z,98969.86
2019-05-21T13:00:44.838Z,98962.57
2019-05-21T13:03:11.077Z,98963.00
2019-05-21T13:05:37.214Z,98965.64
2019-05-21T13:08:03.621Z,98967.61
2019-05-21T13:10:29.800Z,98972.47
2019-05-21T13:12:55.961Z,98970.72
2019-05-21T13:15:22.263Z,98964.02
2019-05-21T13:17:48.483Z,98972.20
2019-05-21T13:20:15.540Z,98974.24
2019-05-21T13:22:41.737Z,98974.25
2019-05-21T13:25:07.936Z,98983.37
2019-05-21T13:27:34.095Z,98983.48
2019-05-21T13:30:00.474Z,98983.98
2019-05-21T13:32:26.665Z,98986.02
2019-05-21T13:34:52.845Z,98980.64
2019-05-21T13:37:19.027Z,98972.12
2019-05-21T13:39:49.837Z,98984.45
2019-05-21T13:42:13.270Z,99067.48
2019-05-21T13:44:39.592Z,99122.70
2019-05-21T13:47:05.891Z,99139.73
2019-05-21T13:49:32.041Z,99241.70
2019-05-21T13:51:58.217Z,99175.69
2019-05-21T13:54:24.504Z,99107.33
2019-05-21T13:56:51.514Z,99102.86
2019-05-21T13:59:18.006Z,99110.14
2019-05-21T14:01:44.300Z,99091.38
2019-05-21T14:04:10.549Z,99063.66
2019-05-21T14:06:36.699Z,99067.36
2019-05-21T14:09:04.906Z,99066.21
2019-05-21T14:11:31.965Z,99066.30
2019-05-21T14:13:58.142Z,99070.92
2019-05-21T14:16:24.517Z,99074.58
2019-05-21T14:18:50.740Z,99085.52
2019-05-21T14:21:17.069Z,99099.13
2019-05-21T14:23:43.274Z,99094.75
2019-05-21T14:26:09.615Z,99070.36
2019-05-21T14:28:35.784Z,99063.06
2019-05-21T14:31:02.100Z,99051.34
2019-05-21T14:33:28.256Z,99044.09
2019-05-21T14:35:54.421Z,99055.48
2019-05-21T14:38:20.628Z,99060.98
2019-05-21T14:40:47.683Z,99070.50
2019-05-21T14:43:13.863Z,99095.79
2019-05-21T14:45:40.170Z,99102.53
2019-05-21T14:48:06.326Z,99097.00
2019-05-21T14:50:32.516Z,99098.83
2019-05-21T14:52:58.695Z,99105.08
2019-05-21T14:55:24.848Z,99110.23
2019-05-21T14:57:51.047Z,99117.16
2019-05-21T15:13:32.901Z,99128.17
2019-05-21T15:15:59.077Z,99133.23
2019-05-21T15:18:25.349Z,99140.70
2019-05-21T15:20:56.052Z,99128.61
2019-05-21T15:23:22.395Z,99121.90
2019-05-21T15:25:48.569Z,99117.87
2019-05-21T15:28:14.767Z,99119.42
2019-05-21T15:43:11.014Z,99093.08
2019-05-21T15:45:37.174Z,99109.34
2019-05-21T15:48:03.453Z,99123.15
2019-05-21T15:50:29.647Z,99114.02
2019-05-21T15:52:56.133Z,99117.20
2019-05-21T15:55:22.317Z,99094.30
2019-05-21T15:57:48.526Z,99068.63
2019-05-21T16:00:15.590Z,99063.80
2019-05-21T16:02:41.843Z,99068.32
2019-05-21T16:05:08.427Z,99050.81
2019-05-21T16:07:34.681Z,99040.97
2019-05-21T16:10:00.883Z,99030.42
2019-05-21T16:12:27.053Z,99038.30
2019-05-21T16:14:53.232Z,99043.64
2019-05-21T16:17:19.417Z,99046.43
2019-05-21T16:19:45.596Z,99049.22
2019-05-21T16:22:11.873Z,99046.81
2019-05-21T16:24:38.069Z,99053.11
2019-05-21T16:27:04.263Z,99061.93
2019-05-21T16:29:30.444Z,99061.02
2019-05-21T16:31:56.718Z,99074.70
2019-05-21T16:34:22.887Z,99085.81
2019-05-21T16:36:49.072Z,99097.35
2019-05-21T16:39:18.943Z,99108.53
2019-05-21T16:41:45.612Z,99105.81
2019-05-21T16:44:12.110Z,99110.26
2019-05-21T16:46:38.406Z,99113.42
2019-05-21T16:49:04.584Z,99117.98
2019-05-21T16:51:30.772Z,99112.90
2019-05-21T16:53:57.454Z,99110.63
2019-05-21T16:56:23.639Z,99115.63
2019-05-21T16:58:49.839Z,99124.96
2019-05-21T17:01:16.620Z,99124.52
2019-05-21T17:03:42.935Z,99122.22
2019-05-21T17:06:09.192Z,99121.98
2019-05-21T17:08:35.370Z,99120.81
2019-05-21T17:11:01.575Z,99125.81
2019-05-21T17:13:27.736Z,99134.75
2019-05-21T17:15:53.934Z,99134.31
2019-05-21T17:18:20.155Z,99124.15
2019-05-21T17:20:46.309Z,99143.20
2019-05-21T17:23:12.475Z,99137.57
2019-05-21T17:25:38.700Z,99139.36
2019-05-21T17:28:04.939Z,99145.58
2019-05-21T17:30:31.330Z,99141.69
2019-05-21T17:32:57.537Z,99143.31
2019-05-21T17:35:23.689Z,99143.21
2019-05-21T17:37:49.865Z,99145.45
2019-05-21T17:40:16.058Z,99151.89
2019-05-21T17:42:42.227Z,99152.70
2019-05-21T17:45:08.924Z,99148.84
2019-05-21T17:47:36.079Z,99151.89
2019-05-21T17:50:04.257Z,99158.07
2019-05-21T17:52:30.445Z,99154.91
2019-05-21T17:54:57.305Z,99156.94
2019-05-21T17:57:24.187Z,99154.95
2019-05-21T17:59:50.469Z,99158.89
2019-05-21T18:02:17.388Z,99154.95
2019-05-21T18:04:43.857Z,99161.16
2019-05-21T18:07:11.736Z,99157.91
2019-05-21T18:09:38.627Z,99159.86
2019-05-21T18:12:09.003Z,99163.17
2019-05-21T18:14:35.386Z,99147.39
2019-05-21T18:17:01.659Z,99153.47
2019-05-21T18:19:28.359Z,99162.34
2019-05-21T18:21:54.518Z,99164.16
2019-05-21T18:24:20.849Z,99172.53
2019-05-21T18:26:46.997Z,99170.34
2019-05-21T18:29:13.173Z,99165.41
2019-05-21T18:31:39.491Z,99168.52
2019-05-21T18:34:05.746Z,99177.11
2019-05-21T18:36:32.016Z,99168.83
2019-05-21T18:38:58.268Z,99172.13
2019-05-21T18:41:24.446Z,99186.37
2019-05-21T18:43:50.817Z,99181.88
2019-05-21T18:46:17.030Z,99186.02
2019-05-21T18:48:43.181Z,99189.00
2019-05-21T18:51:09.338Z,99190.22
2019-05-21T18:53:35.751Z,99183.15
2019-05-21T18:56:01.907Z,99192.77
2019-05-21T18:58:28.185Z,99186.78
2019-05-21T19:00:54.412Z,99196.22
2019-05-21T19:03:26.182Z,99191.58
2019-05-21T19:05:48.669Z,99191.44
2019-05-21T19:08:14.869Z,99191.96
2019-05-21T19:10:41.027Z,99192.19
2019-05-21T19:13:07.204Z,99200.77
2019-05-21T19:15:33.540Z,99207.99
2019-05-21T19:17:59.697Z,99212.28
2019-05-21T19:20:25.859Z,99209.63
2019-05-21T19:22:52.162Z,99210.70
2019-05-21T19:25:18.441Z,99208.56
2019-05-21T19:27:44.754Z,99206.64
2019-05-21T19:30:12.010Z,99208.89
2019-05-21T19:32:38.184Z,99205.50
2019-05-21T19:35:05.102Z,99205.06
2019-05-21T19:37:31.415Z,99211.20
2019-05-21T19:39:57.864Z,99209.63
2019-05-21T19:42:24.060Z,99222.78
2019-05-21T19:44:50.404Z,99223.56
2019-05-21T19:47:16.684Z,99231.02
2019-05-21T19:49:42.964Z,99244.61
2019-05-21T19:52:09.201Z,99231.73
2019-05-21T19:54:35.507Z,99231.30
2019-05-21T19:57:02.088Z,99229.94
2019-05-21T19:59:28.877Z,99226.41
2019-05-21T20:01:55.484Z,99226.19
2019-05-21T20:04:23.371Z,99243.38
2019-05-21T20:06:49.707Z,99237.27
2019-05-21T20:09:16.708Z,99232.76
2019-05-21T20:11:43.081Z,99240.19
2019-05-21T20:14:09.915Z,99250.51
2019-05-21T20:16:37.108Z,99257.99
2019-05-21T20:19:04.617Z,99247.96
2019-05-21T20:21:31.562Z,99239.86
2019-05-21T20:23:57.830Z,99235.00
2019-05-21T20:26:24.234Z,99242.69
2019-05-21T20:28:50.556Z,99235.70
2019-05-21T20:31:16.939Z,99237.10
2019-05-21T20:33:44.424Z,99233.11
2019-05-21T20:36:10.759Z,99229.49
2019-05-21T20:38:37.156Z,99248.97
2019-05-21T20:41:04.367Z,99246.48
2019-05-21T20:43:30.740Z,99243.91
2019-05-21T20:45:57.017Z,99238.31
2019-05-21T20:48:25.595Z,99254.52
2019-05-21T20:50:52.686Z,99246.83
2019-05-21T20:53:18.882Z,99249.25
2019-05-21T20:55:46.047Z,99256.39
2019-05-21T20:58:12.933Z,99253.16
2019-05-21T21:00:52.925Z,99248.34
2019-05-21T21:03:19.334Z,99253.78
2019-05-21T21:05:45.516Z,99261.30
2019-05-21T21:08:13.394Z,99260.46
2019-05-21T21:10:40.178Z,99260.63
2019-05-21T21:13:08.430Z,99259.06
2019-05-21T21:15:35.302Z,99262.34
2019-05-21T21:18:02.610Z,99261.50
2019-05-21T21:20:28.804Z,99261.70
2019-05-21T21:22:55.439Z,99257.45
2019-05-21T21:25:23.527Z,99258.27
2019-05-21T21:27:49.783Z,99254.84
2019-05-21T21:30:16.155Z,99254.83
2019-05-21T21:32:42.351Z,99239.77
2019-05-21T21:35:10.227Z,99237.86
2019-05-21T21:37:36.598Z,99242.72
2019-05-21T21:40:05.589Z,99241.98
2019-05-21T21:42:32.782Z,99237.13
2019-05-21T21:44:59.454Z,99249.02
2019-05-21T21:47:25.961Z,99247.24
2019-05-21T21:49:52.539Z,99253.41
2019-05-21T21:52:18.717Z,99240.99
2019-05-21T21:54:45.614Z,99242.20
2019-05-21T21:57:11.873Z,99242.62
2019-05-21T21:59:38.053Z,99239.25
2019-05-21T22:02:30.411Z,99238.30
2019-05-21T22:04:56.993Z,99241.19
2019-05-21T22:07:23.776Z,99245.55
2019-05-21T22:09:50.511Z,99249.08
2019-05-21T22:12:17.095Z,99247.08
2019-05-21T22:14:51.586Z,99247.80
2019-05-21T22:17:14.689Z,99255.08
2019-05-21T22:19:40.885Z,99234.50
2019-05-21T22:22:07.613Z,99237.94
2019-05-21T22:24:34.078Z,99234.61
2019-05-21T22:27:00.376Z,99227.45
2019-05-21T22:29:26.670Z,99228.05
2019-05-21T22:31:52.905Z,99230.91
2019-05-21T22:34:20.095Z,99227.91
2019-05-21T22:36:46.396Z,99230.08
2019-05-21T22:39:14.513Z,99220.11
2019-05-21T22:41:41.336Z,99224.03
2019-05-21T22:44:07.531Z,99221.45
2019-05-21T22:46:33.741Z,99220.52
2019-05-21T22:49:00.392Z,99208.56
2019-05-21T22:51:26.563Z,99222.39
2019-05-21T22:53:52.797Z,99228.31
2019-05-21T22:56:19.073Z,99228.42
2019-05-21T22:58:45.341Z,99231.07
2019-05-21T23:01:11.668Z,99230.00
2019-05-21T23:03:37.941Z,99235.19
2019-05-21T23:06:04.137Z,99233.81
2019-05-21T23:08:31.279Z,99236.63
2019-05-21T23:10:57.463Z,99233.58
2019-05-21T23:13:23.645Z,99232.45
2019-05-21T23:15:50.748Z,99228.00
2019-05-21T23:18:17.732Z,99229.09
2019-05-21T23:20:44.527Z,99232.09
2019-05-21T23:23:10.865Z,99241.34
2019-05-21T23:25:38.976Z,99227.06
2019-05-21T23:28:05.456Z,99226.94
2019-05-21T23:30:31.967Z,99222.23
2019-05-21T23:32:58.146Z,99226.87
2019-05-21T23:35:25.423Z,99230.73
2019-05-21T23:37:52.743Z,99226.58
2019-05-21T23:40:21.436Z,99231.52
2019-05-21T23:42:47.712Z,99238.31
2019-05-21T23:45:15.047Z,99231.17
2019-05-21T23:47:41.225Z,99229.33
2019-05-21T23:50:08.699Z,99228.73
2019-05-21T23:52:37.243Z,99228.58
2019-05-21T23:55:05.230Z,99222.74
2019-05-21T23:57:33.506Z,99228.05
